createdAt,value
2024-05-09T00:03:47.807Z,9.8628
2024-05-09T00:13:58.830Z,9.8481
2024-05-09T00:24:09.664Z,9.9893
2024-05-09T00:34:20.686Z,9.8209
2024-05-09T00:44:31.802Z,9.6992
2024-05-09T00:54:42.707Z,10.0962
2024-05-09T01:04:53.695Z,10.5847
2024-05-09T01:15:04.476Z,10.9306
2024-05-09T01:25:15.383Z,11.1465
2024-05-09T01:35:26.206Z,11.2783
2024-05-09T01:45:37.030Z,11.3942
2024-05-09T01:55:47.979Z,11.4714
2024-05-09T02:05:58.637Z,11.5257
2024-05-09T02:16:09.569Z,11.6063
2024-05-09T02:26:20.356Z,11.6801
2024-05-09T02:36:30.913Z,11.7417
2024-05-09T02:46:41.793Z,11.7556
2024-05-09T02:56:52.527Z,11.6834
2024-05-09T03:07:03.204Z,11.5532
2024-05-09T03:17:14.046Z,11.4577
2024-05-09T03:27:24.779Z,11.4970
2024-05-09T03:37:36.087Z,11.5536
2024-05-09T03:47:47.134Z,11.6018
2024-05-09T03:57:58.132Z,11.6437
2024-05-09T04:08:09.049Z,11.6826
2024-05-09T04:18:19.871Z,11.7193
2024-05-09T04:28:30.526Z,11.6878
2024-05-09T04:38:41.193Z,11.7768
2024-05-09T04:48:52.172Z,11.8835
2024-05-09T04:59:02.788Z,12.0232
2024-05-09T05:09:13.799Z,12.2023
2024-05-09T05:19:24.436Z,12.3717
2024-05-09T05:29:38.101Z,12.6677
2024-05-09T05:39:48.631Z,12.8184
2024-05-09T05:49:59.442Z,13.0133
2024-05-09T06:00:10.001Z,13.1578
2024-05-09T06:10:26.413Z,13.1542
2024-05-09T06:20:39.214Z,13.5986
2024-05-09T06:30:49.606Z,14.4692
2024-05-09T06:40:59.817Z,15.8227
2024-05-09T06:51:09.954Z,16.5911
2024-05-09T07:01:20.091Z,16.9984
2024-05-09T07:11:30.182Z,16.2324
2024-05-09T07:21:40.331Z,15.4433
2024-05-09T07:31:50.553Z,15.5377
2024-05-09T07:42:00.689Z,16.3395
2024-05-09T07:53:29.182Z,16.2543
2024-05-09T08:02:26.891Z,16.5300
2024-05-09T08:12:36.807Z,17.3097
2024-05-09T08:22:46.765Z,17.6644
2024-05-09T08:32:56.676Z,17.4232
2024-05-09T08:43:06.905Z,16.8576
2024-05-09T08:53:16.833Z,17.9553
2024-05-09T09:03:26.589Z,18.5980
2024-05-09T09:13:36.734Z,18.4384
2024-05-09T09:23:46.713Z,17.7283
2024-05-09T09:33:56.802Z,18.2323
2024-05-09T09:44:06.810Z,20.3021
2024-05-09T09:54:16.399Z,20.8912
2024-05-09T10:04:26.201Z,22.3522
2024-05-09T10:14:35.590Z,24.1333
2024-05-09T10:24:44.711Z,24.4298
2024-05-09T10:34:54.690Z,25.3899
2024-05-09T10:45:03.762Z,24.4222
2024-05-09T10:55:13.086Z,22.5894
2024-05-09T11:05:22.696Z,24.1919
2024-05-09T11:15:31.993Z,25.7806
2024-05-09T11:25:41.187Z,25.3611
2024-05-09T11:35:50.145Z,25.8515
2024-05-09T11:45:59.181Z,24.9486
2024-05-09T11:56:08.401Z,24.8177
2024-05-09T12:06:17.838Z,23.2057
2024-05-09T12:16:26.960Z,24.2522
2024-05-09T12:26:35.993Z,24.6411
2024-05-09T12:36:45.250Z,25.6386
2024-05-09T12:46:54.724Z,26.2993
2024-05-09T12:57:03.539Z,26.0305
2024-05-09T13:07:12.429Z,25.7179
2024-05-09T13:17:21.434Z,24.8756
2024-05-09T13:27:30.629Z,25.5579
2024-05-09T13:37:39.450Z,25.6702
2024-05-09T13:47:48.573Z,25.5116
2024-05-09T13:57:57.473Z,25.6819
2024-05-09T14:08:06.455Z,25.0632
2024-05-09T14:18:15.580Z,24.9639
2024-05-09T14:28:24.805Z,24.3674
2024-05-09T14:38:34.054Z,25.1265
2024-05-09T14:48:43.371Z,24.2141
2024-05-09T14:58:52.832Z,23.4242
2024-05-09T15:09:01.966Z,23.5920
2024-05-09T15:19:11.903Z,23.1127
2024-05-09T15:29:21.131Z,22.6267
2024-05-09T15:39:30.422Z,22.9523
2024-05-09T15:49:39.858Z,22.8097
2024-05-09T15:59:49.201Z,22.0945
2024-05-09T16:09:58.479Z,22.1212
2024-05-09T16:20:12.264Z,21.8016
2024-05-09T16:30:31.515Z,21.5307
2024-05-09T16:40:41.019Z,20.5023
2024-05-09T16:50:51.211Z,20.1199
2024-05-09T17:01:00.824Z,19.2273
2024-05-09T17:11:10.785Z,19.0646
2024-05-09T17:21:21.176Z,18.9075
2024-05-09T17:31:31.234Z,18.6107
2024-05-09T17:41:41.175Z,18.0876
2024-05-09T17:51:51.088Z,17.4103
2024-05-09T18:02:01.089Z,16.9825
2024-05-09T18:12:12.024Z,16.4266
2024-05-09T18:22:22.162Z,16.0232
2024-05-09T18:32:32.249Z,15.7915
2024-05-09T18:42:42.424Z,15.5591
2024-05-09T18:52:52.540Z,15.3204
2024-05-09T19:03:03.317Z,15.1178
2024-05-09T19:13:14.494Z,14.7540
2024-05-09T19:23:25.399Z,14.3262
2024-05-09T19:33:35.818Z,13.8189
2024-05-09T19:43:46.373Z,13.1793
2024-05-09T19:53:57.192Z,12.7307
2024-05-09T20:04:07.827Z,12.3805
2024-05-09T20:14:18.648Z,12.0977
2024-05-09T20:24:29.486Z,11.7871
2024-05-09T20:34:40.343Z,11.5091
2024-05-09T20:44:51.233Z,11.3525
2024-05-09T20:55:02.132Z,11.1470
2024-05-09T21:05:13.355Z,11.0277
2024-05-09T21:15:24.208Z,10.8441
2024-05-09T21:25:35.129Z,10.8468
2024-05-09T21:35:45.968Z,10.9317
2024-05-09T21:45:56.856Z,10.7512
2024-05-09T21:56:07.749Z,10.5591
2024-05-09T22:06:18.621Z,10.4539
2024-05-09T22:16:29.615Z,10.3630
2024-05-09T22:26:40.532Z,10.2391
2024-05-09T22:36:51.294Z,10.1168
2024-05-09T22:47:02.267Z,10.1026
2024-05-09T22:57:13.317Z,10.0295
2024-05-09T23:07:24.240Z,9.8572
2024-05-09T23:17:35.328Z,9.6107
2024-05-09T23:27:46.326Z,9.6813
2024-05-09T23:37:57.509Z,9.5821
2024-05-09T23:48:08.789Z,9.5406
2024-05-09T23:58:20.101Z,9.5281
